createdAt,value
2023-03-20T00:02:27.119Z,5.82
2023-03-20T00:12:31.453Z,5.05
2023-03-20T00:17:33.486Z,7.23
2023-03-20T00:22:35.133Z,5.17
2023-03-20T00:27:37.059Z,4.73
2023-03-20T00:32:38.726Z,4.65
2023-03-20T00:37:40.457Z,6.00
2023-03-20T00:42:44.940Z,6.90
2023-03-20T00:47:51.465Z,5.50
2023-03-20T00:52:53.802Z,8.40
2023-03-20T00:57:56.987Z,5.43
2023-03-20T01:02:59.044Z,8.48
2023-03-20T01:08:01.223Z,3.88
2023-03-20T01:13:03.767Z,7.82
2023-03-20T01:18:06.136Z,7.43
2023-03-20T01:23:08.117Z,7.50
2023-03-20T01:28:18.518Z,7.20
2023-03-20T01:33:23.247Z,12.73
2023-03-20T01:38:29.230Z,12.02
2023-03-20T01:43:34.058Z,13.20
2023-03-20T01:48:57.986Z,12.20
2023-03-20T01:54:10.777Z,10.95
2023-03-20T01:59:51.190Z,12.15
2023-03-20T02:04:58.168Z,11.73
2023-03-20T02:10:00.996Z,11.15
2023-03-20T02:15:17.181Z,11.60
2023-03-20T02:20:44.619Z,11.85
2023-03-20T02:26:08.351Z,10.98
2023-03-20T02:31:22.883Z,11.43
2023-03-20T02:36:46.617Z,10.20
2023-03-20T02:42:03.680Z,10.27
2023-03-20T02:47:13.372Z,8.00
2023-03-20T02:52:22.591Z,9.57
2023-03-20T02:57:42.852Z,8.50
2023-03-20T03:02:59.922Z,9.73
2023-03-20T03:08:04.734Z,9.43
2023-03-20T03:13:15.780Z,11.30
2023-03-20T03:18:24.843Z,9.25
2023-03-20T03:23:35.420Z,9.38
2023-03-20T03:28:46.039Z,9.18
2023-03-20T03:33:55.513Z,9.43
2023-03-20T03:39:06.302Z,8.45
2023-03-20T03:44:18.176Z,7.93
2023-03-20T03:49:28.931Z,8.57
2023-03-20T03:54:43.449Z,9.18
2023-03-20T04:00:27.275Z,9.60
2023-03-20T04:05:31.763Z,10.20
2023-03-20T04:10:33.838Z,9.43
2023-03-20T04:15:35.807Z,8.90
2023-03-20T04:20:39.217Z,8.57
2023-03-20T04:25:41.264Z,9.13
2023-03-20T04:30:44.260Z,38.53
2023-03-20T04:35:52.742Z,10.68
2023-03-20T04:40:55.293Z,10.00
2023-03-20T04:45:57.819Z,8.10
2023-03-20T04:50:59.884Z,7.75
2023-03-20T04:56:14.373Z,8.57
2023-03-20T05:01:16.628Z,8.50
2023-03-20T05:06:18.589Z,8.73
2023-03-20T05:11:20.958Z,8.03
2023-03-20T05:16:47.334Z,8.07
2023-03-20T05:22:11.130Z,8.20
2023-03-20T05:27:31.389Z,8.35
2023-03-20T05:32:56.819Z,8.70
2023-03-20T05:38:01.440Z,9.00
2023-03-20T05:43:16.916Z,9.23
2023-03-20T05:48:38.981Z,8.88
2023-03-20T05:54:03.425Z,9.45
2023-03-20T05:59:31.304Z,9.95
2023-03-20T06:05:05.929Z,11.50
2023-03-20T06:10:17.277Z,10.63
2023-03-20T06:15:19.807Z,10.90
2023-03-20T06:20:28.971Z,11.52
2023-03-20T06:25:30.926Z,10.00
2023-03-20T06:30:33.485Z,12.13
2023-03-20T06:35:36.382Z,10.77
2023-03-20T06:40:38.787Z,10.75
2023-03-20T06:45:41.000Z,10.60
2023-03-20T06:50:53.053Z,10.40
2023-03-20T06:55:57.343Z,12.15
2023-03-20T07:00:59.430Z,11.60
2023-03-20T07:06:01.795Z,11.67
2023-03-20T07:11:05.202Z,12.90
2023-03-20T07:16:08.241Z,11.73
2023-03-20T07:21:19.857Z,12.55
2023-03-20T07:26:22.125Z,11.63
2023-03-20T07:31:26.848Z,11.23
2023-03-20T07:36:38.005Z,8.50
2023-03-20T07:41:40.159Z,9.67
2023-03-20T07:46:45.970Z,9.15
2023-03-20T07:51:49.265Z,9.38
2023-03-20T07:56:51.551Z,9.13
2023-03-20T08:01:53.257Z,8.13
2023-03-20T08:06:55.043Z,9.35
2023-03-20T08:11:56.749Z,9.05
2023-03-20T08:17:12.828Z,9.00
2023-03-20T08:22:16.614Z,9.70
2023-03-20T08:27:18.366Z,9.47
2023-03-20T08:32:20.094Z,9.93
2023-03-20T08:37:22.228Z,9.83
2023-03-20T08:42:23.946Z,8.90
2023-03-20T08:47:27.020Z,9.30
2023-03-20T08:52:28.792Z,8.27
2023-03-20T08:57:30.853Z,6.00
2023-03-20T09:02:33.312Z,6.27
2023-03-20T09:07:35.592Z,5.93
2023-03-20T09:12:37.788Z,5.82
2023-03-20T09:17:39.676Z,4.75
2023-03-20T09:22:42.413Z,4.20
2023-03-20T09:27:44.181Z,4.82
2023-03-20T09:32:46.178Z,4.68
2023-03-20T09:37:48.358Z,3.53
2023-03-20T09:42:59.300Z,3.40
2023-03-20T09:48:09.618Z,4.00
2023-03-20T09:53:20.473Z,4.50
2023-03-20T09:58:30.140Z,4.07
2023-03-20T10:03:58.373Z,2.85
2023-03-20T10:09:00.278Z,3.42
2023-03-20T10:14:24.299Z,2.60
2023-03-20T10:19:36.674Z,1.77
2023-03-20T10:24:52.233Z,2.95
2023-03-20T10:30:03.566Z,2.67
2023-03-20T10:35:34.648Z,2.20
2023-03-20T10:40:41.543Z,2.30
2023-03-20T10:45:48.319Z,2.67
2023-03-20T10:50:53.845Z,2.60
2023-03-20T10:55:59.463Z,2.40
2023-03-20T11:01:02.946Z,2.50
2023-03-20T11:06:28.308Z,2.15
2023-03-20T11:11:34.314Z,2.08
2023-03-20T11:16:40.731Z,2.10
2023-03-20T11:21:51.788Z,2.08
2023-03-20T11:26:55.482Z,2.70
2023-03-20T11:32:06.730Z,2.10
2023-03-20T11:37:22.835Z,1.95
2023-03-20T11:42:28.409Z,1.98
2023-03-20T11:47:34.036Z,1.60
2023-03-20T11:52:38.968Z,1.60
2023-03-20T11:57:42.468Z,2.38
2023-03-20T12:02:44.865Z,2.28
2023-03-20T12:07:49.778Z,2.20
2023-03-20T12:12:59.146Z,1.90
2023-03-20T12:18:15.654Z,1.88
2023-03-20T12:23:29.890Z,1.40
2023-03-20T12:28:47.694Z,1.05
2023-03-20T12:34:01.338Z,0.95
2023-03-20T12:39:06.615Z,1.30
2023-03-20T12:44:21.789Z,1.42
2023-03-20T12:49:33.641Z,1.23
2023-03-20T12:55:00.221Z,1.30
2023-03-20T13:00:17.235Z,1.60
2023-03-20T13:05:56.827Z,1.23
2023-03-20T13:11:12.934Z,1.48
2023-03-20T13:16:41.627Z,1.40
2023-03-20T13:21:55.367Z,1.30
2023-03-20T13:27:21.158Z,1.30
2023-03-20T13:32:33.839Z,1.05
2023-03-20T13:37:41.101Z,1.02
2023-03-20T13:42:52.231Z,0.93
2023-03-20T13:47:55.534Z,0.80
2023-03-20T13:53:24.359Z,1.02
2023-03-20T13:59:07.487Z,0.80
2023-03-20T14:04:16.109Z,0.82
2023-03-20T14:09:30.501Z,0.80
2023-03-20T14:14:51.920Z,1.00
2023-03-20T14:19:55.178Z,1.42
2023-03-20T14:25:06.677Z,1.30
2023-03-20T14:30:29.916Z,1.13
2023-03-20T14:35:37.098Z,1.23
2023-03-20T14:40:57.129Z,1.38
2023-03-20T14:46:15.775Z,1.20
2023-03-20T14:51:37.600Z,1.30
2023-03-20T14:56:39.816Z,1.33
2023-03-20T15:01:48.054Z,1.15
2023-03-20T15:07:14.041Z,1.60
2023-03-20T15:12:22.521Z,1.55
2023-03-20T15:17:41.422Z,1.40
2023-03-20T15:23:01.312Z,1.27
2023-03-20T15:28:08.236Z,1.80
2023-03-20T15:33:41.741Z,1.40
2023-03-20T15:38:44.551Z,2.00
2023-03-20T15:48:51.293Z,13.07
2023-03-20T15:53:53.110Z,1.58
2023-03-20T15:58:56.731Z,1.65
2023-03-20T16:03:59.809Z,1.88
2023-03-20T16:09:07.949Z,1.50
2023-03-20T16:14:14.899Z,1.80
2023-03-20T16:19:17.752Z,2.00
2023-03-20T16:24:25.954Z,1.50
2023-03-20T16:29:29.164Z,1.73
2023-03-20T16:34:34.565Z,2.10
2023-03-20T16:39:36.230Z,2.13
2023-03-20T16:44:40.291Z,2.08
2023-03-20T16:49:54.203Z,2.08
2023-03-20T16:55:00.580Z,2.10
2023-03-20T17:00:27.856Z,2.15
2023-03-20T17:05:42.498Z,2.38
2023-03-20T17:10:56.157Z,2.20
2023-03-20T17:15:59.177Z,2.13
2023-03-20T17:21:00.828Z,2.92
2023-03-20T17:26:02.513Z,4.35
2023-03-20T17:31:05.438Z,6.20
2023-03-20T17:36:17.127Z,5.97
2023-03-20T17:41:20.710Z,5.07
2023-03-20T17:46:26.592Z,4.65
2023-03-20T17:51:29.038Z,3.42
2023-03-20T17:56:32.634Z,2.63
2023-03-20T18:01:34.351Z,1.42
2023-03-20T18:06:36.967Z,1.52
2023-03-20T18:11:38.717Z,2.20
2023-03-20T18:16:40.417Z,3.67
2023-03-20T18:21:42.093Z,3.40
2023-03-20T18:26:45.824Z,3.80
2023-03-20T18:31:49.135Z,2.53
2023-03-20T18:41:53.633Z,1.80
2023-03-20T18:46:55.325Z,1.83
2023-03-20T18:51:57.068Z,1.80
2023-03-20T18:57:00.726Z,2.10
2023-03-20T19:02:02.468Z,2.90
2023-03-20T19:07:04.133Z,3.00
2023-03-20T19:12:06.291Z,2.58
2023-03-20T19:17:10.958Z,2.10
2023-03-20T19:22:26.589Z,1.90
2023-03-20T19:27:30.721Z,2.38
2023-03-20T19:32:32.541Z,2.03
2023-03-20T19:37:34.171Z,1.90
2023-03-20T19:42:59.837Z,1.65
2023-03-20T19:47:59.008Z,2.20
2023-03-20T19:53:11.528Z,2.25
2023-03-20T19:58:14.138Z,4.55
2023-03-20T20:03:19.189Z,2.50
2023-03-20T20:08:39.457Z,2.05
2023-03-20T20:14:04.270Z,1.58
2023-03-20T20:19:05.819Z,1.98
2023-03-20T20:24:07.729Z,2.70
2023-03-20T20:29:09.750Z,2.90
2023-03-20T20:39:33.371Z,2.30
2023-03-20T20:44:35.275Z,2.03
2023-03-20T20:49:37.045Z,2.20
2023-03-20T20:54:41.912Z,2.30
2023-03-20T20:59:43.606Z,2.08
2023-03-20T21:04:45.396Z,2.17
2023-03-20T21:09:47.678Z,2.28
2023-03-20T21:14:50.734Z,2.33
2023-03-20T21:25:11.034Z,8.82
2023-03-20T21:30:15.718Z,3.90
2023-03-20T21:35:17.464Z,2.93
2023-03-20T21:40:19.451Z,2.77
2023-03-20T21:51:28.537Z,2.05
2023-03-20T21:56:45.667Z,2.17
2023-03-20T22:07:35.952Z,2.42
2023-03-20T22:12:55.968Z,2.20
2023-03-20T22:18:12.206Z,2.15
2023-03-20T22:29:20.805Z,2.72
2023-03-20T22:34:25.866Z,2.67
2023-03-20T22:49:45.524Z,3.38
2023-03-20T22:54:47.207Z,3.83
2023-03-20T22:59:49.046Z,4.05
2023-03-20T23:04:52.429Z,4.10
2023-03-20T23:09:54.405Z,5.28
2023-03-20T23:14:56.086Z,4.28
2023-03-20T23:20:10.414Z,4.47
2023-03-20T23:25:23.572Z,4.35
2023-03-20T23:30:37.978Z,4.60
2023-03-20T23:35:46.326Z,4.50
2023-03-20T23:40:50.263Z,4.72
2023-03-20T23:45:51.955Z,4.75
2023-03-20T23:50:53.924Z,4.43
2023-03-20T23:55:57.122Z,4.80
